Main page
METAR-TAF:

METAR-TAF

Airports :

Wrocław, Poland

Copernicus Airport Wrocław

latitude: 51-06N, longitude: 016-53E, elevation: 120 m

Current weather observation

The report was made 37 minutes ago, at 19:00 UTC
Wind 2 kt from the West
Temperature 14°C
Humidity 77%
Pressure 1018 hPa
Visibility 10 km or more
no clouds below 1500 m and no cumulonimbus

METAR: EPWR 231900Z 27002KT CAVOK 14/10 Q1018

Time: 21:37 (19:37 UTC)

Forecast

The report was made 2 hours and 7 minutes ago, at 17:30 UTC
Forecast valid from 23 at 18 UTC to 24 at 18 UTC
Wind 10 kt from the West/Northwest
Visibility 10 km or more
Scattered clouds at a height of 4000 ft
Becoming
from 23 at 18 UTC to 23 at 21 UTC
Wind 2 kt from variable directions
Probability 30%
from 24 at 02 UTC to 24 at 06 UTC
Visibility: 3000 m
mist
Becoming
from 24 at 09 UTC to 24 at 11 UTC
Wind 10 kt from the Southwest

TAF: EPWR 231730Z 2318/2418 29010KT 9999 SCT040 BECMG 2318/2321 VRB02KT PROB30 2402/2406 3000 BR BECMG 2409/2411 23010KT

Weather observations and forecasts of more than 4000 airports (METAR and TAF reports).

The available stations are represented by yellow and red dots on the map.

Hover mouse over dot to see the name of the station.

Then click to see weather observations and forecasts.

To change the map : click on the green buttons with a black cross to zoom in, on the green button with a dash to zoom out, or on the green arrows for adjacent maps.


METAR-TAF: